Station History

Weather Underground - logo

Station Historical Data
Daily Summary for January 11, 2018 Units:  English    Metric   Both
« Previous Day
Next Day »
Daily Weekly Monthly Yearly Custom
  High: Low: Average:
Temperature: 65.1 °F 44.7 °F 53 °F
Dew Point: 53.3 °F 43.6 °F 49 °F
Humidity: 97 % 62 % 87 %
Wind Speed: 2.3 mph 0.0 mph 0.2 mph
Wind Gust: 2.3 mph - -
Wind:- - SSW
Pressure: 30.39 in 30.25 in -
Precipitation: 0.00 in    
Historical Graphs
 
 
Tabular Data for January 11, 2018
Time Temperature Dew Point Pressure Wind Wind Speed Wind Gust Humidity Rainfall Rate (Hourly)
00:04 46.2 °F 45.1 °F 30.25 in Calm     96 % 0.00 in
00:09 46.3 °F 45.2 °F 30.25 in Calm     96 % 0.00 in
00:15 46.2 °F 45.1 °F 30.25 in Calm     96 % 0.00 in
00:24 45.8 °F 44.4 °F 30.25 in Calm     95 % 0.00 in
00:36 45.2 °F 43.9 °F 30.26 in Calm     95 % 0.00 in
00:42 44.9 °F 43.6 °F 30.26 in Calm     95 % 0.00 in
01:00 44.7 °F 43.6 °F 30.25 in Calm     96 % 0.00 in
01:08 44.9 °F 43.8 °F 30.26 in Calm     96 % 0.00 in
01:16 45.1 °F 44.0 °F 30.26 in Calm     96 % 0.00 in
01:27 45.8 °F 44.7 °F 30.27 in Calm     96 % 0.00 in
01:37 46.1 °F 45.0 °F 30.27 in Calm     96 % 0.00 in
01:49 46.4 °F 45.3 °F 30.28 in Calm     96 % 0.00 in
02:01 46.8 °F 45.7 °F 30.28 in ESE 1.2 mph   96 % 0.00 in
02:08 47.1 °F 46.0 °F 30.28 in Calm     96 % 0.00 in
02:14 47.3 °F 46.2 °F 30.28 in Calm     96 % 0.00 in
02:20 47.6 °F 46.5 °F 30.28 in Calm     96 % 0.00 in
02:36 47.7 °F 46.6 °F 30.29 in Calm     96 % 0.00 in
02:41 47.8 °F 46.7 °F 30.28 in Calm     96 % 0.00 in
02:47 47.8 °F 46.7 °F 30.29 in Calm     96 % 0.00 in
02:53 47.9 °F 46.8 °F 30.29 in Calm     96 % 0.00 in
03:12 48.0 °F 46.9 °F 30.28 in Calm     96 % 0.00 in
03:17 48.0 °F 46.9 °F 30.28 in Calm     96 % 0.00 in
03:22 48.0 °F 46.9 °F 30.28 in Calm     96 % 0.00 in
03:30 48.0 °F 46.9 °F 30.28 in Calm     96 % 0.00 in
03:45 48.1 °F 47.0 °F 30.28 in Calm     96 % 0.00 in
03:55 47.9 °F 46.8 °F 30.28 in Calm     96 % 0.00 in
04:00 47.9 °F 46.8 °F 30.28 in Calm     96 % 0.00 in
04:07 47.7 °F 46.6 °F 30.27 in Calm     96 % 0.00 in
04:23 47.4 °F 46.3 °F 30.27 in Calm     96 % 0.00 in
04:31 47.0 °F 45.6 °F 30.27 in Calm     95 % 0.00 in
04:38 46.9 °F 45.8 °F 30.27 in Calm     96 % 0.00 in
04:46 46.6 °F 45.5 °F 30.28 in Calm     96 % 0.00 in
04:55 46.3 °F 45.2 °F 30.28 in Calm     96 % 0.00 in
05:15 46.1 °F 45.0 °F 30.29 in Calm     96 % 0.00 in
05:25 46.7 °F 45.6 °F 30.29 in Calm     96 % 0.00 in
05:31 47.1 °F 46.3 °F 30.30 in Calm     97 % 0.00 in
05:39 47.5 °F 46.7 °F 30.30 in Calm     97 % 0.00 in
05:45 47.8 °F 47.0 °F 30.30 in Calm     97 % 0.00 in
05:56 48.3 °F 47.2 °F 30.30 in Calm     96 % 0.00 in
06:05 48.5 °F 47.4 °F 30.31 in Calm     96 % 0.00 in
06:13 48.7 °F 47.6 °F 30.31 in Calm     96 % 0.00 in
06:25 49.1 °F 47.7 °F 30.32 in Calm     95 % 0.00 in
06:32 49.2 °F 47.8 °F 30.32 in Calm     95 % 0.00 in
06:37 49.3 °F 47.9 °F 30.32 in Calm     95 % 0.00 in
06:48 49.4 °F 48.0 °F 30.32 in Calm     95 % 0.00 in
06:53 49.5 °F 48.1 °F 30.32 in Calm     95 % 0.00 in
07:19 50.1 °F 48.7 °F 30.32 in Calm     95 % 0.00 in
07:30 50.3 °F 48.9 °F 30.32 in Calm     95 % 0.00 in
07:36 50.4 °F 49.0 °F 30.32 in Calm     95 % 0.00 in
07:49 50.3 °F 48.9 °F 30.32 in Calm     95 % 0.00 in
07:56 50.4 °F 49.0 °F 30.33 in Calm     95 % 0.00 in
08:02 50.5 °F 49.1 °F 30.33 in Calm     95 % 0.00 in
08:07 50.6 °F 49.2 °F 30.33 in NE 1.2 mph   95 % 0.00 in
08:14 50.7 °F 49.3 °F 30.33 in Calm     95 % 0.00 in
08:20 50.7 °F 49.3 °F 30.34 in NE 1.0 mph   95 % 0.00 in
08:37 50.9 °F 49.2 °F 30.35 in Calm     94 % 0.00 in
08:49 51.3 °F 49.6 °F 30.36 in Calm     94 % 0.00 in
08:56 51.6 °F 49.9 °F 30.37 in Calm     94 % 0.00 in
09:14 52.4 °F 50.7 °F 30.38 in Calm     94 % 0.00 in
09:20 52.9 °F 50.9 °F 30.38 in NNE 1.2 mph   93 % 0.00 in
09:26 53.6 °F 51.6 °F 30.38 in Calm     93 % 0.00 in
09:32 54.5 °F 52.2 °F 30.39 in Calm     92 % 0.00 in
09:46 56.0 °F 53.1 °F 30.39 in Calm     90 % 0.00 in
09:54 56.5 °F 52.7 °F 30.39 in Calm     87 % 0.00 in
10:05 57.0 °F 53.2 °F 30.38 in Calm     87 % 0.00 in
10:14 57.3 °F 53.1 °F 30.38 in SE 1.2 mph 1.2 mph 86 % 0.00 in
10:57 58.9 °F 53.1 °F 30.37 in Calm     81 % 0.00 in
11:02 58.8 °F 53.3 °F 30.37 in NW 1.2 mph   82 % 0.00 in
11:07 58.3 °F 53.2 °F 30.37 in WNW 1.2 mph   83 % 0.00 in
11:33 57.8 °F 53.0 °F 30.35 in Calm     84 % 0.00 in
11:46 58.4 °F 53.3 °F 30.34 in Calm     83 % 0.00 in
12:07 59.6 °F 52.7 °F 30.33 in Calm     78 % 0.00 in
12:16 60.2 °F 52.2 °F 30.33 in Calm     75 % 0.00 in
12:32 61.1 °F 52.7 °F 30.32 in WNW 1.2 mph 1.2 mph 74 % 0.00 in
12:37 61.2 °F 52.5 °F 30.32 in WNW 1.2 mph   73 % 0.00 in
12:43 61.4 °F 51.9 °F 30.32 in WNW 2.3 mph 2.3 mph 71 % 0.00 in
12:48 61.6 °F 52.9 °F 30.32 in SSE 1.2 mph 1.2 mph 73 % 0.00 in
12:53 62.2 °F 53.1 °F 30.31 in SSE 2.3 mph   72 % 0.00 in
12:58 62.6 °F 52.7 °F 30.31 in NNW 1.2 mph 1.2 mph 70 % 0.00 in
13:04 62.6 °F 52.7 °F 30.31 in SSE 1.2 mph 1.2 mph 70 % 0.00 in
13:09 63.2 °F 52.9 °F 30.31 in SSE 1.2 mph 1.2 mph 69 % 0.00 in
13:15 63.4 °F 52.7 °F 30.31 in SSW 1.2 mph 1.2 mph 68 % 0.00 in
13:20 63.7 °F 52.1 °F 30.30 in NW 2.3 mph 2.3 mph 66 % 0.00 in
13:32 63.8 °F 52.2 °F 30.30 in SE 1.2 mph   66 % 0.00 in
14:12 65.1 °F 51.8 °F 30.29 in Calm   0.1 mph 62 % 0.00 in
14:17 65.1 °F 51.8 °F 30.29 in SE 1.0 mph 1.0 mph 62 % 0.00 in
14:23 64.9 °F 51.6 °F 30.29 in NNW 1.2 mph 1.2 mph 62 % 0.00 in
14:31 64.6 °F 51.7 °F 30.29 in East 2.0 mph 2.0 mph 63 % 0.00 in
14:32 64.5 °F 51.6 °F 30.29 in SE 2.3 mph 2.3 mph 63 % 0.00 in
15:01 63.1 °F 51.1 °F 30.28 in NW 1.2 mph   65 % 0.00 in
15:03 63.0 °F 51.5 °F 30.28 in SSE 2.3 mph 2.3 mph 66 % 0.00 in
15:16 62.7 °F 51.2 °F 30.28 in Calm     66 % 0.00 in
15:22 62.6 °F 51.1 °F 30.28 in Calm     66 % 0.00 in
15:40 62.4 °F 51.3 °F 30.28 in Calm     67 % 0.00 in
15:42 62.4 °F 51.3 °F 30.28 in Calm     67 % 0.00 in
15:46 62.2 °F 51.5 °F 30.28 in Calm     68 % 0.00 in
16:01 61.7 °F 51.0 °F 30.28 in Calm     68 % 0.00 in
16:06 61.7 °F 51.0 °F 30.28 in Calm     68 % 0.00 in
16:12 61.6 °F 51.3 °F 30.28 in Calm     69 % 0.00 in
16:17 61.4 °F 51.1 °F 30.28 in Calm     69 % 0.00 in
16:28 60.9 °F 51.4 °F 30.28 in Calm     71 % 0.00 in
16:34 60.6 °F 51.5 °F 30.28 in Calm     72 % 0.00 in
16:48 59.7 °F 51.0 °F 30.28 in Calm     73 % 0.00 in
17:09 57.8 °F 51.0 °F 30.28 in Calm     78 % 0.00 in
17:24 56.5 °F 50.7 °F 30.29 in Calm     81 % 0.00 in
17:29 56.3 °F 50.9 °F 30.29 in Calm     82 % 0.00 in
17:34 55.9 °F 50.8 °F 30.29 in Calm     83 % 0.00 in
17:47 55.2 °F 50.8 °F 30.29 in Calm     85 % 0.00 in
17:49 55.1 °F 50.7 °F 30.29 in Calm     85 % 0.00 in
17:59 54.9 °F 50.5 °F 30.30 in Calm     85 % 0.00 in
18:04 54.7 °F 50.6 °F 30.30 in Calm     86 % 0.00 in
18:19 54.6 °F 50.5 °F 30.30 in Calm     86 % 0.00 in
18:24 54.3 °F 50.2 °F 30.30 in Calm     86 % 0.00 in
18:37 53.4 °F 49.6 °F 30.30 in Calm     87 % 0.00 in
18:49 52.8 °F 49.3 °F 30.30 in Calm     88 % 0.00 in
18:55 52.4 °F 49.3 °F 30.31 in Calm     89 % 0.00 in
19:02 52.1 °F 49.3 °F 30.31 in Calm     90 % 0.00 in
19:14 51.9 °F 49.1 °F 30.31 in Calm     90 % 0.00 in
19:19 51.8 °F 49.0 °F 30.31 in Calm     90 % 0.00 in
19:30 51.5 °F 48.7 °F 30.31 in Calm     90 % 0.00 in
19:39 51.2 °F 48.7 °F 30.31 in Calm     91 % 0.00 in
19:44 51.0 °F 48.5 °F 30.31 in Calm     91 % 0.00 in
20:12 50.7 °F 48.5 °F 30.32 in Calm     92 % 0.00 in
20:19 50.9 °F 48.9 °F 30.31 in Calm     93 % 0.00 in
20:25 51.0 °F 48.8 °F 30.32 in Calm     92 % 0.00 in
20:34 51.0 °F 48.8 °F 30.32 in Calm     92 % 0.00 in
20:45 51.0 °F 48.8 °F 30.32 in Calm     92 % 0.00 in
20:53 51.2 °F 49.0 °F 30.33 in Calm     92 % 0.00 in
20:59 51.3 °F 49.3 °F 30.33 in Calm     93 % 0.00 in
21:06 51.7 °F 49.7 °F 30.33 in Calm     93 % 0.00 in
21:15 52.0 °F 49.7 °F 30.33 in Calm     92 % 0.00 in
21:24 51.9 °F 49.6 °F 30.33 in Calm     92 % 0.00 in
21:29 51.7 °F 49.5 °F 30.33 in Calm     92 % 0.00 in
21:43 51.1 °F 48.9 °F 30.33 in Calm     92 % 0.00 in
21:52 50.7 °F 48.5 °F 30.33 in Calm     92 % 0.00 in
22:00 50.5 °F 48.3 °F 30.33 in Calm     92 % 0.00 in
22:08 50.3 °F 48.1 °F 30.33 in Calm     92 % 0.00 in
22:20 50.0 °F 48.1 °F 30.33 in Calm     93 % 0.00 in
22:25 49.9 °F 48.0 °F 30.33 in Calm     93 % 0.00 in
22:41 49.5 °F 47.6 °F 30.33 in Calm     93 % 0.00 in
23:04 49.0 °F 47.3 °F 30.32 in Calm     94 % 0.00 in
23:17 48.5 °F 46.9 °F 30.32 in Calm     94 % 0.00 in
23:28 47.8 °F 45.9 °F 30.32 in Calm     93 % 0.00 in
23:35 47.7 °F 46.1 °F 30.32 in Calm     94 % 0.00 in
23:50 47.2 °F 45.6 °F 30.32 in Calm     94 % 0.00 in
Park Place, Exeter, Tulare County, California, USA
Compliments of Weather Underground - 2 mb